createdAt,value
2022-08-12T00:02:03.632Z,53.60
2022-08-12T00:04:52.162Z,53.70
2022-08-12T00:07:39.378Z,53.80
2022-08-12T00:10:28.230Z,54.00
2022-08-12T00:13:15.263Z,54.20
2022-08-12T00:16:03.673Z,54.30
2022-08-12T00:18:50.557Z,54.50
2022-08-12T00:21:38.277Z,54.80
2022-08-12T00:24:26.377Z,55.00
2022-08-12T00:27:16.146Z,55.20
2022-08-12T00:30:03.178Z,55.30
2022-08-12T00:32:54.664Z,55.30
2022-08-12T00:35:44.469Z,55.30
2022-08-12T00:38:31.595Z,55.30
2022-08-12T00:41:19.489Z,55.30
2022-08-12T00:43:50.372Z,55.30
2022-08-12T00:46:33.213Z,55.10
2022-08-12T00:49:02.995Z,55.00
2022-08-12T00:51:46.151Z,55.00
2022-08-12T00:54:15.320Z,54.90
2022-08-12T00:56:44.888Z,54.80
2022-08-12T00:59:15.686Z,54.80
2022-08-12T01:02:10.841Z,54.80
2022-08-12T01:04:56.148Z,54.90
2022-08-12T01:07:45.606Z,55.10
2022-08-12T01:10:32.558Z,55.20
2022-08-12T01:13:07.548Z,55.20
2022-08-12T01:15:53.019Z,55.20
2022-08-12T01:18:24.643Z,55.60
2022-08-12T01:21:04.797Z,56.00
2022-08-12T01:23:50.311Z,56.50
2022-08-12T01:26:23.393Z,56.90
2022-08-12T01:28:57.082Z,57.30
2022-08-12T01:31:30.049Z,57.60
2022-08-12T01:34:03.636Z,57.60
2022-08-12T01:36:38.014Z,57.70
2022-08-12T01:39:07.526Z,57.60
2022-08-12T01:41:43.051Z,57.90
2022-08-12T01:44:20.736Z,58.40
2022-08-12T01:46:59.742Z,58.80
2022-08-12T01:49:45.137Z,59.30
2022-08-12T01:52:25.679Z,59.80
2022-08-12T01:54:55.257Z,60.00
2022-08-12T01:57:58.195Z,60.20
2022-08-12T02:00:55.422Z,60.50
2022-08-12T02:04:00.180Z,60.80
2022-08-12T02:06:52.117Z,61.30
2022-08-12T02:09:50.642Z,61.50
2022-08-12T02:12:31.298Z,62.00
2022-08-12T02:15:13.121Z,62.20
2022-08-12T02:18:04.161Z,62.40
2022-08-12T02:20:51.148Z,62.70
2022-08-12T02:23:27.032Z,62.70
2022-08-12T02:26:00.534Z,63.00
2022-08-12T02:28:30.657Z,63.50
2022-08-12T02:31:05.299Z,63.70
2022-08-12T02:33:35.722Z,64.00
2022-08-12T02:36:06.098Z,64.10
2022-08-12T02:38:37.252Z,64.20
2022-08-12T02:41:08.277Z,64.40
2022-08-12T02:43:41.375Z,64.50
2022-08-12T02:46:15.214Z,64.70
2022-08-12T02:48:51.377Z,64.90
2022-08-12T02:51:23.819Z,65.00
2022-08-12T02:54:03.047Z,65.20
2022-08-12T02:56:40.649Z,65.30
2022-08-12T02:59:12.114Z,65.30
2022-08-12T03:01:52.119Z,65.30
2022-08-12T03:04:27.391Z,65.60
2022-08-12T03:07:10.579Z,65.50
2022-08-12T03:10:04.864Z,65.50
2022-08-12T03:12:42.817Z,65.60
2022-08-12T03:15:22.180Z,65.70
2022-08-12T03:18:26.377Z,65.80
2022-08-12T03:20:47.211Z,65.90
2022-08-12T03:23:30.177Z,65.90
2022-08-12T03:26:02.687Z,65.70
2022-08-12T03:28:54.404Z,65.60
2022-08-12T03:31:25.924Z,66.10
2022-08-12T03:34:03.054Z,65.60
2022-08-12T03:36:35.354Z,65.40
2022-08-12T03:39:36.134Z,65.30
2022-08-12T03:42:28.293Z,65.40
2022-08-12T03:45:16.220Z,65.60
2022-08-12T03:48:11.205Z,65.50
2022-08-12T03:51:06.989Z,65.30
2022-08-12T03:53:54.236Z,65.40
2022-08-12T03:56:40.745Z,65.50
2022-08-12T03:59:27.486Z,65.70
2022-08-12T04:01:58.496Z,65.70
2022-08-12T04:04:29.568Z,65.80
2022-08-12T04:07:00.803Z,65.90
2022-08-12T04:09:31.128Z,66.00
2022-08-12T04:12:17.621Z,66.10
2022-08-12T04:14:46.821Z,66.20
2022-08-12T04:17:17.241Z,66.40
2022-08-12T04:19:48.143Z,66.60
2022-08-12T04:22:18.653Z,66.70
2022-08-12T04:24:50.488Z,66.70
2022-08-12T04:27:19.839Z,66.90
2022-08-12T04:30:16.818Z,67.10
2022-08-12T04:32:43.745Z,67.20
2022-08-12T04:35:14.057Z,67.20
2022-08-12T04:37:57.948Z,67.40
2022-08-12T04:40:32.359Z,67.50
2022-08-12T04:43:02.373Z,67.50
2022-08-12T04:45:32.626Z,67.70
2022-08-12T04:48:03.135Z,67.70
2022-08-12T04:50:35.849Z,67.80
2022-08-12T04:53:09.541Z,67.70
2022-08-12T04:55:39.291Z,67.70
2022-08-12T04:58:08.403Z,67.60
2022-08-12T05:00:39.039Z,67.70
2022-08-12T05:03:09.269Z,67.80
2022-08-12T05:05:40.750Z,67.80
2022-08-12T05:08:14.080Z,68.00
2022-08-12T05:10:44.710Z,68.20
2022-08-12T05:13:16.787Z,68.40
2022-08-12T05:16:03.598Z,68.60
2022-08-12T05:18:39.434Z,68.80
2022-08-12T05:21:09.833Z,68.90
2022-08-12T05:23:41.310Z,69.10
2022-08-12T05:26:10.484Z,69.40
2022-08-12T05:28:39.514Z,69.50
2022-08-12T05:31:08.979Z,69.20
2022-08-12T05:33:40.322Z,69.60
2022-08-12T05:36:10.402Z,69.90
2022-08-12T05:38:59.936Z,70.10
2022-08-12T05:41:30.810Z,69.80
2022-08-12T05:44:02.107Z,70.30
2022-08-12T05:46:32.412Z,70.80
2022-08-12T05:49:01.784Z,71.20
2022-08-12T05:51:40.801Z,71.70
2022-08-12T05:54:12.918Z,72.00
2022-08-12T05:56:42.459Z,72.30
2022-08-12T05:59:12.780Z,72.50
2022-08-12T06:02:10.503Z,72.60
2022-08-12T06:04:33.383Z,72.60
2022-08-12T06:07:42.800Z,72.50
2022-08-12T06:09:53.465Z,72.40
2022-08-12T06:12:23.449Z,72.30
2022-08-12T06:14:55.147Z,72.30
2022-08-12T06:17:24.254Z,72.20
2022-08-12T06:20:26.634Z,72.10
2022-08-12T06:22:42.772Z,72.10
2022-08-12T06:25:21.826Z,72.00
2022-08-12T06:28:06.544Z,72.00
2022-08-12T06:30:39.478Z,71.90
2022-08-12T06:33:57.858Z,72.00
2022-08-12T06:35:59.742Z,72.00
2022-08-12T06:38:32.379Z,71.90
2022-08-12T06:41:20.464Z,71.80
2022-08-12T06:44:04.840Z,71.70
2022-08-12T06:46:38.981Z,71.60
2022-08-12T06:49:13.299Z,71.40
2022-08-12T06:51:42.373Z,71.30
2022-08-12T06:54:31.408Z,70.80
2022-08-12T06:57:56.921Z,70.70
2022-08-12T06:59:51.918Z,70.60
2022-08-12T07:02:22.983Z,70.50
2022-08-12T07:04:52.710Z,70.70
2022-08-12T07:07:21.821Z,70.40
2022-08-12T07:10:04.681Z,70.20
2022-08-12T07:12:37.993Z,70.10
2022-08-12T07:15:08.094Z,69.70
2022-08-12T07:17:37.785Z,69.50
2022-08-12T07:20:35.686Z,69.20
2022-08-12T07:23:01.936Z,69.00
2022-08-12T07:25:41.217Z,68.90
2022-08-12T07:28:17.103Z,68.70
2022-08-12T07:30:48.640Z,68.40
2022-08-12T07:33:18.703Z,67.80
2022-08-12T07:35:48.600Z,67.40
2022-08-12T07:38:29.875Z,67.10
2022-08-12T07:41:03.547Z,66.80
2022-08-12T07:43:36.601Z,66.60
2022-08-12T07:46:10.568Z,66.30
2022-08-12T07:48:42.150Z,66.10
2022-08-12T07:51:11.639Z,66.00
2022-08-12T07:54:00.199Z,65.70
2022-08-12T07:56:32.248Z,65.70
2022-08-12T07:59:03.124Z,65.80
2022-08-12T08:01:34.022Z,65.80
2022-08-12T08:04:19.343Z,65.60
2022-08-12T08:06:49.396Z,65.30
2022-08-12T08:09:21.328Z,65.20
2022-08-12T08:12:08.632Z,65.20
2022-08-12T08:14:40.640Z,65.10
2022-08-12T08:17:11.540Z,65.00
2022-08-12T08:20:00.240Z,64.60
2022-08-12T08:22:40.651Z,64.30
2022-08-12T08:25:20.471Z,63.90
2022-08-12T08:28:05.206Z,63.80
2022-08-12T08:30:38.384Z,63.60
2022-08-12T08:33:23.718Z,63.20
2022-08-12T08:36:00.873Z,62.80
2022-08-12T08:38:33.380Z,62.70
2022-08-12T08:42:16.660Z,62.50
2022-08-12T08:44:13.186Z,62.20
2022-08-12T08:46:44.624Z,62.00
2022-08-12T08:49:15.405Z,62.00
2022-08-12T08:51:46.240Z,61.70
2022-08-12T08:54:15.343Z,61.30
2022-08-12T08:56:46.403Z,61.20
2022-08-12T08:59:15.689Z,61.10
2022-08-12T09:01:46.815Z,61.00
2022-08-12T09:05:08.570Z,60.40
2022-08-12T09:07:17.683Z,60.20
2022-08-12T09:10:02.208Z,59.90
2022-08-12T09:15:41.687Z,59.80
2022-08-12T09:18:12.419Z,59.60
2022-08-12T09:20:44.256Z,59.30
2022-08-12T09:23:58.947Z,59.20
2022-08-12T09:26:09.899Z,59.00
2022-08-12T09:28:42.002Z,58.80
2022-08-12T09:32:03.494Z,58.60
2022-08-12T09:34:29.009Z,58.20
2022-08-12T09:36:59.973Z,58.20
2022-08-12T09:40:07.933Z,58.10
2022-08-12T09:42:54.179Z,57.80
2022-08-12T09:46:11.551Z,57.60
2022-08-12T09:48:24.052Z,57.40
2022-08-12T09:50:55.581Z,57.00
2022-08-12T09:53:36.513Z,57.00
2022-08-12T09:57:00.467Z,56.90
2022-08-12T09:59:01.903Z,56.80
2022-08-12T10:01:35.380Z,56.60
2022-08-12T10:04:21.275Z,57.00
2022-08-12T10:06:55.013Z,55.90
2022-08-12T10:09:28.563Z,55.60
2022-08-12T10:12:41.688Z,55.50
2022-08-12T10:15:15.518Z,55.50
2022-08-12T10:18:07.069Z,55.80
2022-08-12T10:20:36.818Z,56.00
2022-08-12T10:23:07.583Z,56.00
2022-08-12T10:26:34.650Z,55.80
2022-08-12T10:30:01.285Z,55.60
2022-08-12T10:32:21.365Z,55.40
2022-08-12T10:34:53.366Z,55.10
2022-08-12T10:38:34.681Z,54.80
2022-08-12T10:40:20.613Z,54.70
2022-08-12T10:43:09.490Z,54.50
2022-08-12T10:45:49.298Z,54.50
2022-08-12T10:48:26.907Z,54.00
2022-08-12T10:52:02.814Z,53.80
2022-08-12T10:53:54.326Z,53.80
2022-08-12T10:56:34.613Z,53.70
2022-08-12T10:59:10.667Z,53.60
2022-08-12T11:04:17.852Z,53.60
2022-08-12T11:04:45.292Z,53.70
2022-08-12T11:08:38.192Z,53.40
2022-08-12T11:10:09.216Z,53.30
2022-08-12T11:12:59.966Z,53.40
2022-08-12T11:15:33.187Z,53.20
2022-08-12T11:18:19.138Z,53.40
2022-08-12T11:20:49.319Z,53.60
2022-08-12T11:23:25.688Z,53.50
2022-08-12T11:26:08.133Z,53.40
2022-08-12T11:28:39.639Z,53.40
2022-08-12T11:31:13.948Z,53.80
2022-08-12T11:34:06.868Z,54.00
2022-08-12T11:36:39.470Z,53.80
2022-08-12T11:39:12.485Z,53.60
2022-08-12T11:41:43.071Z,53.60
2022-08-12T11:44:36.802Z,53.60
2022-08-12T11:47:03.179Z,53.60
2022-08-12T11:49:38.883Z,53.30
2022-08-12T11:52:17.618Z,53.50
2022-08-12T11:54:56.984Z,53.80
2022-08-12T11:58:33.861Z,54.00
2022-08-12T12:02:02.053Z,53.70
2022-08-12T12:03:06.244Z,53.70
2022-08-12T12:05:39.558Z,53.80
2022-08-12T12:08:41.338Z,53.80
2022-08-12T12:10:59.896Z,53.60
2022-08-12T12:14:08.062Z,53.40
2022-08-12T12:16:19.390Z,53.20
2022-08-12T12:18:48.789Z,53.20
2022-08-12T12:21:18.011Z,53.20
2022-08-12T12:24:07.484Z,53.20
2022-08-12T12:26:38.510Z,53.20
2022-08-12T12:30:13.620Z,53.40
2022-08-12T12:32:10.732Z,53.30
2022-08-12T12:35:13.082Z,53.00
2022-08-12T12:38:04.058Z,52.80
2022-08-12T12:40:19.396Z,52.90
2022-08-12T12:42:56.889Z,52.80
2022-08-12T12:45:33.396Z,52.70
2022-08-12T12:48:05.595Z,52.60
2022-08-12T12:50:42.815Z,52.70
2022-08-12T12:54:07.811Z,52.60
2022-08-12T12:56:09.284Z,52.30
2022-08-12T12:58:40.236Z,52.10
2022-08-12T13:01:26.746Z,51.90
2022-08-12T13:04:01.680Z,52.10
2022-08-12T13:06:32.474Z,52.10
2022-08-12T13:09:03.939Z,51.90
2022-08-12T13:11:41.431Z,51.70
2022-08-12T13:14:28.161Z,51.70
2022-08-12T13:17:02.791Z,51.80
2022-08-12T13:19:44.478Z,52.00
2022-08-12T13:22:23.789Z,52.00
2022-08-12T13:24:56.374Z,52.20
2022-08-12T13:27:35.629Z,52.20
2022-08-12T13:30:12.500Z,52.10
2022-08-12T13:32:57.119Z,52.20
2022-08-12T13:36:03.316Z,52.10
2022-08-12T13:38:26.623Z,52.20
2022-08-12T13:41:03.235Z,52.30
2022-08-12T13:43:41.316Z,52.40
2022-08-12T13:46:12.395Z,52.50
2022-08-12T13:48:45.168Z,52.70
2022-08-12T13:51:24.117Z,53.10
2022-08-12T13:53:58.982Z,53.20
2022-08-12T13:56:35.179Z,53.40
2022-08-12T13:59:08.460Z,53.70
2022-08-12T14:01:40.622Z,54.00
2022-08-12T14:04:12.015Z,54.20
2022-08-12T14:06:43.430Z,54.40
2022-08-12T14:09:17.429Z,54.50
2022-08-12T14:11:58.967Z,54.60
2022-08-12T14:14:31.284Z,54.70
2022-08-12T14:17:10.423Z,54.90
2022-08-12T14:20:01.212Z,55.10
2022-08-12T14:22:33.990Z,55.30
2022-08-12T14:25:03.218Z,55.30
2022-08-12T14:27:55.434Z,55.30
2022-08-12T14:30:28.830Z,55.50
2022-08-12T14:33:02.844Z,55.50
2022-08-12T14:35:34.040Z,55.50
2022-08-12T14:38:25.960Z,55.60
2022-08-12T14:40:58.746Z,55.50
2022-08-12T14:43:58.933Z,55.60
2022-08-12T14:46:24.312Z,56.40
2022-08-12T14:48:55.027Z,55.70
2022-08-12T14:52:44.211Z,55.80
2022-08-12T14:57:20.404Z,56.10
2022-08-12T15:00:10.319Z,56.10
2022-08-12T15:02:40.092Z,56.30
2022-08-12T15:05:09.868Z,56.40
2022-08-12T15:07:49.990Z,56.50
2022-08-12T15:10:31.305Z,56.50
2022-08-12T15:13:07.523Z,56.60
2022-08-12T15:15:43.660Z,56.60
2022-08-12T15:18:21.828Z,56.60
2022-08-12T15:20:54.590Z,56.50
2022-08-12T15:23:29.153Z,56.50
2022-08-12T15:26:05.123Z,56.30
2022-08-12T15:28:35.934Z,56.00
2022-08-12T15:31:21.285Z,55.60
2022-08-12T15:33:57.350Z,55.30
2022-08-12T15:36:54.126Z,55.10
2022-08-12T15:39:17.631Z,55.00
2022-08-12T15:41:49.852Z,54.90
2022-08-12T15:44:38.173Z,55.00
2022-08-12T15:47:10.451Z,55.00
2022-08-12T15:49:55.139Z,55.10
2022-08-12T15:52:31.182Z,55.20
2022-08-12T15:55:06.398Z,55.30
2022-08-12T15:57:46.827Z,55.40
2022-08-12T16:00:33.415Z,55.60
2022-08-12T16:03:08.616Z,55.60
2022-08-12T16:06:12.030Z,55.70
2022-08-12T16:08:36.499Z,55.70
2022-08-12T16:11:07.220Z,55.70
2022-08-12T16:13:38.178Z,55.70
2022-08-12T16:16:24.121Z,55.80
2022-08-12T16:18:59.499Z,55.80
2022-08-12T16:21:52.243Z,56.30
2022-08-12T16:24:21.994Z,55.50
2022-08-12T16:26:54.155Z,55.70
2022-08-12T16:29:52.573Z,55.60
2022-08-12T16:32:24.097Z,55.40
2022-08-12T16:34:55.752Z,55.40
2022-08-12T16:38:04.908Z,55.30
2022-08-12T16:40:16.180Z,55.20
2022-08-12T16:42:53.867Z,55.00
2022-08-12T16:46:07.972Z,55.00
2022-08-12T16:48:34.735Z,55.10
2022-08-12T16:51:09.251Z,55.20
2022-08-12T16:53:45.132Z,55.20
2022-08-12T16:56:15.746Z,55.10
2022-08-12T16:58:48.051Z,55.10
2022-08-12T17:01:18.502Z,55.10
2022-08-12T17:04:04.591Z,55.30
2022-08-12T17:06:41.680Z,55.20
2022-08-12T17:09:17.758Z,55.20
2022-08-12T17:11:49.112Z,55.20
2022-08-12T17:14:23.083Z,55.20
2022-08-12T17:16:55.953Z,55.10
2022-08-12T17:20:35.567Z,55.20
2022-08-12T17:22:16.893Z,55.30
2022-08-12T17:24:55.387Z,55.30
2022-08-12T17:27:26.813Z,55.40
2022-08-12T17:30:04.836Z,55.30
2022-08-12T17:32:37.119Z,55.10
2022-08-12T17:35:29.675Z,54.60
2022-08-12T17:38:02.165Z,54.30
2022-08-12T17:40:37.028Z,54.00
2022-08-12T17:43:55.931Z,54.00
2022-08-12T17:45:59.879Z,54.00
2022-08-12T17:48:35.008Z,53.90
2022-08-12T17:51:15.736Z,53.80
2022-08-12T17:54:12.499Z,53.80
2022-08-12T17:56:38.056Z,53.70
2022-08-12T17:59:12.484Z,53.80
2022-08-12T18:01:45.262Z,53.90
2022-08-12T18:04:23.302Z,53.80
2022-08-12T18:07:06.321Z,53.70
2022-08-12T18:09:38.228Z,53.70
2022-08-12T18:12:26.666Z,53.80
2022-08-12T18:14:58.483Z,53.80
2022-08-12T18:17:29.270Z,53.90
2022-08-12T18:20:06.500Z,53.80
2022-08-12T18:22:38.503Z,53.80
2022-08-12T18:26:12.437Z,53.80
2022-08-12T18:28:16.976Z,53.80
2022-08-12T18:30:53.271Z,53.80
2022-08-12T18:33:25.836Z,53.80
2022-08-12T18:35:58.413Z,53.80
2022-08-12T18:38:28.276Z,53.70
2022-08-12T18:41:21.423Z,53.70
2022-08-12T18:44:01.050Z,53.70
2022-08-12T18:46:48.939Z,53.70
2022-08-12T18:49:31.591Z,53.80
2022-08-12T18:52:05.571Z,53.90
2022-08-12T18:54:49.773Z,54.00
2022-08-12T18:58:06.943Z,54.10
2022-08-12T19:00:21.268Z,54.20
2022-08-12T19:02:53.419Z,54.30
2022-08-12T19:05:24.450Z,54.50
2022-08-12T19:08:15.763Z,54.70
2022-08-12T19:10:50.202Z,55.00
2022-08-12T19:13:39.527Z,55.10
2022-08-12T19:16:11.586Z,55.10
2022-08-12T19:18:44.943Z,55.50
2022-08-12T19:21:16.093Z,56.90
2022-08-12T19:24:07.627Z,56.90
2022-08-12T19:26:36.580Z,57.50
2022-08-12T19:29:08.429Z,57.60
2022-08-12T19:31:57.511Z,58.50
2022-08-12T19:37:27.221Z,59.80
2022-08-12T19:40:32.007Z,60.10
2022-08-12T19:43:01.135Z,60.30
2022-08-12T19:45:41.964Z,60.40
2022-08-12T19:48:17.251Z,60.50
2022-08-12T19:50:50.696Z,60.60
2022-08-12T19:53:23.463Z,60.80
2022-08-12T19:55:55.610Z,61.10
2022-08-12T19:58:25.809Z,61.30
2022-08-12T20:00:56.344Z,61.50
2022-08-12T20:03:40.649Z,61.60
2022-08-12T20:06:13.868Z,61.40
2022-08-12T20:08:49.228Z,61.80
2022-08-12T20:12:12.790Z,62.00
2022-08-12T20:14:19.534Z,62.10
2022-08-12T20:16:56.453Z,62.20
2022-08-12T20:19:52.377Z,62.40
2022-08-12T20:22:24.352Z,62.30
2022-08-12T20:25:01.661Z,62.30
2022-08-12T20:28:04.635Z,62.30
2022-08-12T20:30:52.604Z,62.10
2022-08-12T20:33:17.309Z,62.30
2022-08-12T20:36:06.989Z,62.40
2022-08-12T20:38:40.458Z,62.50
2022-08-12T20:41:16.448Z,62.60
2022-08-12T20:43:54.936Z,62.60
2022-08-12T20:46:28.100Z,62.60
2022-08-12T20:48:57.812Z,62.60
2022-08-12T20:51:40.576Z,62.60
2022-08-12T20:54:18.558Z,62.80
2022-08-12T20:56:48.910Z,62.80
2022-08-12T20:59:20.182Z,62.90
2022-08-12T21:01:54.179Z,63.00
2022-08-12T21:04:43.710Z,63.10
2022-08-12T21:07:14.334Z,63.20
2022-08-12T21:09:47.763Z,63.30
2022-08-12T21:12:31.230Z,63.40
2022-08-12T21:15:23.079Z,64.50
2022-08-12T21:18:15.444Z,63.60
2022-08-12T21:20:54.296Z,63.70
2022-08-12T21:23:25.406Z,63.60
2022-08-12T21:26:01.044Z,63.60
2022-08-12T21:28:32.043Z,63.60
2022-08-12T21:32:34.533Z,63.60
2022-08-12T21:34:07.332Z,63.50
2022-08-12T21:36:43.062Z,63.50
2022-08-12T21:39:20.832Z,63.50
2022-08-12T21:41:52.777Z,63.50
2022-08-12T21:44:32.628Z,63.50
2022-08-12T21:47:21.163Z,63.70
2022-08-12T21:50:03.500Z,63.70
2022-08-12T21:52:41.128Z,63.70
2022-08-12T21:55:17.891Z,63.60
2022-08-12T21:57:54.394Z,63.60
2022-08-12T22:00:35.026Z,63.60
2022-08-12T22:04:04.446Z,63.70
2022-08-12T22:06:26.089Z,63.70
2022-08-12T22:09:03.168Z,63.60
2022-08-12T22:11:41.443Z,63.70
2022-08-12T22:14:21.703Z,63.70
2022-08-12T22:16:54.304Z,63.60
2022-08-12T22:19:24.791Z,63.70
2022-08-12T22:21:58.889Z,63.70
2022-08-12T22:24:34.892Z,63.70
2022-08-12T22:27:17.932Z,63.60
2022-08-12T22:30:16.850Z,63.70
2022-08-12T22:32:50.487Z,63.60
2022-08-12T22:35:56.239Z,63.60
2022-08-12T22:38:23.963Z,63.50
2022-08-12T22:40:55.821Z,63.50
2022-08-12T22:43:56.367Z,63.50
2022-08-12T22:46:54.347Z,63.40
2022-08-12T22:49:37.291Z,63.50
2022-08-12T22:52:18.285Z,63.60
2022-08-12T22:55:02.949Z,63.50
2022-08-12T22:57:49.014Z,63.50
2022-08-12T23:00:27.708Z,63.60
2022-08-12T23:03:00.335Z,63.50
2022-08-12T23:05:57.576Z,63.50
2022-08-12T23:08:29.838Z,63.60
2022-08-12T23:11:05.942Z,63.50
2022-08-12T23:13:55.325Z,63.70
2022-08-12T23:16:31.145Z,63.80
2022-08-12T23:19:10.393Z,63.70
2022-08-12T23:22:06.108Z,63.70
2022-08-12T23:24:55.712Z,63.70
2022-08-12T23:27:52.274Z,63.70
2022-08-12T23:30:31.771Z,63.80
2022-08-12T23:33:13.183Z,63.80
2022-08-12T23:36:02.425Z,64.60
2022-08-12T23:38:34.578Z,63.80
2022-08-12T23:41:08.902Z,63.80
2022-08-12T23:43:40.977Z,63.80
2022-08-12T23:46:19.442Z,63.70
2022-08-12T23:48:50.255Z,63.80
2022-08-12T23:51:25.432Z,64.10
2022-08-12T23:54:00.286Z,64.20
2022-08-12T23:56:33.832Z,64.20
2022-08-12T23:59:04.850Z,64.10
